Time;durP1;ratioP1;P1;durP2;ratioP2;P2;SDS_P1;SDS_P2;PMS_P1;PMS_P2;Temp;Humidity;BMP_temperature;BMP_pressure;BME280_temperature;BME280_humidity;BME280_pressure;Samples;Min_cycle;Max_cycle;Signal;HPM_P1;HPM_P2
2022/08/24 00:01:16;;;;;;;4.70;3.67;;;;;;;15.72;100.00;96535.97;5043258;27;105518;-60
2022/08/24 00:03:44;;;;;;;3.80;3.50;;;;;;;15.40;100.00;96532.97;5051223;27;105742;-60
2022/08/24 00:06:15;;;;;;;3.60;3.30;;;;;;;15.43;100.00;96543.16;5051000;27;101937;-60
2022/08/24 00:08:43;;;;;;;3.70;3.40;;;;;;;15.23;100.00;96538.66;5055141;27;102316;-60
2022/08/24 00:11:10;;;;;;;3.17;2.93;;;;;;;15.09;100.00;96537.66;5040325;27;102059;-60
2022/08/24 00:13:39;;;;;;;3.63;3.33;;;;;;;14.99;100.00;96536.91;5032248;27;102229;-60
2022/08/24 00:16:08;;;;;;;3.50;3.20;;;;;;;14.93;100.00;96543.34;5031564;28;102805;-60
2022/08/24 00:18:35;;;;;;;3.50;3.30;;;;;;;14.91;100.00;96540.13;5032350;27;102103;-60
2022/08/24 00:21:04;;;;;;;3.93;3.47;;;;;;;14.82;100.00;96541.78;5041302;27;102571;-60
2022/08/24 00:23:32;;;;;;;5.50;3.83;;;;;;;15.03;100.00;96540.59;5033133;27;106731;-60
2022/08/24 00:25:59;;;;;;;3.60;3.30;;;;;;;15.22;100.00;96549.66;5032177;28;101873;-60
2022/08/24 00:28:27;;;;;;;3.80;3.50;;;;;;;15.33;100.00;96548.56;5034725;27;105404;-60
2022/08/24 00:30:56;;;;;;;4.03;3.63;;;;;;;15.27;100.00;96549.63;5034577;27;102199;-60
2022/08/24 00:33:23;;;;;;;5.00;3.53;;;;;;;15.17;100.00;96545.13;5037960;27;105939;-60
2022/08/24 00:35:51;;;;;;;4.50;3.70;;;;;;;15.26;100.00;96554.16;5030035;28;105606;-60
2022/08/24 00:38:17;;;;;;;3.90;3.60;;;;;;;15.28;100.00;96545.88;5030379;28;101894;-60
2022/08/24 00:40:47;;;;;;;3.97;3.67;;;;;;;15.02;100.00;96544.38;5037047;27;104652;-60
2022/08/24 00:43:18;;;;;;;4.37;3.97;;;;;;;15.08;100.00;96546.75;5051118;27;102585;-60
2022/08/24 00:45:51;;;;;;;4.03;3.50;;;;;;;14.80;100.00;96535.88;5050323;27;101847;-60
2022/08/24 00:48:23;;;;;;;3.70;3.40;;;;;;;14.76;100.00;96532.94;5050121;27;105819;-60
2022/08/24 00:50:55;;;;;;;3.70;3.43;;;;;;;14.85;100.00;96536.69;5052162;27;105408;-60
2022/08/24 00:53:25;;;;;;;3.70;3.50;;;;;;;14.57;100.00;96536.50;5049749;27;105542;-60
2022/08/24 00:55:57;;;;;;;3.70;3.23;;;;;;;14.80;100.00;96539.38;5051045;27;102914;-60
2022/08/24 00:58:29;;;;;;;4.27;3.60;;;;;;;14.90;100.00;96541.22;5047767;27;102110;-60
2022/08/24 01:01:01;;;;;;;4.37;3.93;;;;;;;14.60;100.00;96536.75;5058532;27;105546;-60
2022/08/24 01:03:31;;;;;;;5.33;3.57;;;;;;;14.77;100.00;96539.91;5029081;27;105410;-60
2022/08/24 01:05:59;;;;;;;3.80;3.43;;;;;;;14.99;100.00;96539.56;5029814;27;101804;-60
2022/08/24 01:08:27;;;;;;;4.10;3.70;;;;;;;15.06;100.00;96540.88;5029860;27;105662;-60
2022/08/24 01:10:59;;;;;;;4.37;3.73;;;;;;;14.89;100.00;96529.69;5029441;27;105664;-60
2022/08/24 01:13:27;;;;;;;4.20;3.90;;;;;;;14.61;100.00;96524.19;5036865;27;101988;-60
2022/08/24 01:15:58;;;;;;;4.10;3.70;;;;;;;14.79;100.00;96527.06;5049408;27;105379;-60
2022/08/24 01:21:17;;;;;;;4.10;3.80;;;;;;;14.78;100.00;96535.38;5040446;27;105316;-60
2022/08/24 01:23:48;;;;;;;4.93;3.97;;;;;;;14.64;100.00;96535.13;5029473;27;104802;-60
2022/08/24 01:26:19;;;;;;;3.97;3.70;;;;;;;14.65;100.00;96531.38;5049835;27;101936;-60
2022/08/24 01:28:50;;;;;;;4.20;3.90;;;;;;;14.52;100.00;96520.44;5049703;27;105644;-60
2022/08/24 01:31:21;;;;;;;4.20;3.80;;;;;;;14.37;100.00;96523.97;5039115;27;105581;-60
2022/08/24 01:33:50;;;;;;;4.57;4.17;;;;;;;14.39;100.00;96519.13;5030592;27;101861;-60
2022/08/24 01:36:23;;;;;;;3.97;3.60;;;;;;;14.64;100.00;96535.13;5049168;27;105243;-60
2022/08/24 01:38:52;;;;;;;4.20;3.90;;;;;;;14.67;100.00;96533.78;5030816;27;101814;-60
2022/08/24 01:41:20;;;;;;;4.57;4.17;;;;;;;14.65;100.00;96527.88;5029253;28;105064;-60
2022/08/24 01:43:48;;;;;;;4.50;4.17;;;;;;;14.64;100.00;96527.09;5028448;28;104534;-60
2022/08/24 01:46:16;;;;;;;4.17;3.77;;;;;;;14.69;100.00;96523.59;5029361;28;101965;-60
2022/08/24 01:48:43;;;;;;;4.30;4.00;;;;;;;14.34;100.00;96523.72;5029134;28;104915;-60
2022/08/24 01:51:11;;;;;;;4.00;3.70;;;;;;;14.50;100.00;96527.94;5030180;28;103260;-60
2022/08/24 01:53:38;;;;;;;4.37;3.97;;;;;;;14.59;100.00;96526.31;5029109;28;101995;-60
2022/08/24 01:56:07;;;;;;;4.43;4.07;;;;;;;14.51;100.00;96521.53;5029342;28;106925;-60
2022/08/24 01:58:35;;;;;;;4.77;4.37;;;;;;;14.09;100.00;96521.00;5031846;28;105515;-60
2022/08/24 02:01:03;;;;;;;5.33;4.00;;;;;;;13.88;100.00;96517.56;5044972;27;105146;-60
2022/08/24 02:03:30;;;;;;;4.33;3.93;;;;;;;14.09;100.00;96510.31;5028664;28;105950;-60
2022/08/24 02:05:58;;;;;;;4.83;3.80;;;;;;;13.86;100.00;96510.88;5046832;27;102013;-60
2022/08/24 02:08:27;;;;;;;4.40;4.00;;;;;;;13.86;100.00;96513.53;5049061;27;104461;-60
2022/08/24 02:10:54;;;;;;;4.37;3.97;;;;;;;13.93;100.00;96525.56;5048340;27;105996;-60
2022/08/24 02:13:23;;;;;;;4.17;3.77;;;;;;;13.90;100.00;96525.31;5050673;27;102239;-60
2022/08/24 02:15:50;;;;;;;4.57;4.20;;;;;;;13.96;100.00;96524.25;5030623;27;104186;-60
2022/08/24 02:18:18;;;;;;;4.80;4.40;;;;;;;13.82;100.00;96523.16;5028125;28;105870;-60
2022/08/24 02:20:45;;;;;;;4.80;4.40;;;;;;;13.67;100.00;96523.97;5033746;27;101726;-60
2022/08/24 02:23:13;;;;;;;4.20;3.80;;;;;;;13.72;100.00;96529.31;5028299;27;105597;-60
2022/08/24 02:25:41;;;;;;;4.20;3.90;;;;;;;14.02;100.00;96529.31;5030087;27;102105;-60
2022/08/24 02:28:09;;;;;;;4.80;4.40;;;;;;;13.92;100.00;96537.34;5028763;27;105507;-60
2022/08/24 02:30:39;;;;;;;5.30;4.80;;;;;;;13.85;100.00;96533.34;5028131;28;105836;-60
2022/08/24 02:33:06;;;;;;;4.40;4.10;;;;;;;13.87;100.00;96539.19;5040889;27;101996;-60
2022/08/24 02:35:34;;;;;;;6.37;4.30;;;;;;;13.68;100.00;96527.44;5031995;27;105356;-60
2022/08/24 02:38:02;;;;;;;4.67;4.27;;;;;;;13.60;100.00;96533.31;5040214;27;104038;-60
2022/08/24 02:40:31;;;;;;;4.93;4.53;;;;;;;13.51;100.00;96540.25;5052391;27;102042;-60
2022/08/24 02:42:59;;;;;;;4.27;3.97;;;;;;;13.85;100.00;96552.81;5036723;27;105416;-60
2022/08/24 02:45:26;;;;;;;5.37;4.87;;;;;;;14.05;100.00;96552.03;5028545;27;101904;-60
2022/08/24 02:47:55;;;;;;;5.53;4.60;;;;;;;14.01;100.00;96548.31;5032151;27;104933;-60
2022/08/24 02:50:25;;;;;;;4.90;4.50;;;;;;;14.12;100.00;96557.94;5031677;28;105101;-60
2022/08/24 02:52:53;;;;;;;5.90;4.27;;;;;;;14.20;100.00;96554.75;5042417;27;101779;-60
2022/08/24 02:55:21;;;;;;;5.20;4.80;;;;;;;13.91;100.00;96549.09;5037622;27;105216;-60
2022/08/24 02:57:51;;;;;;;4.97;4.57;;;;;;;14.05;100.00;96552.84;5015124;28;105376;-60
2022/08/24 03:00:21;;;;;;;5.30;4.80;;;;;;;14.06;100.00;96551.78;5031580;28;102036;-60
2022/08/24 03:02:52;;;;;;;5.20;4.70;;;;;;;14.02;100.00;96552.59;5045060;27;105222;-60
2022/08/24 03:05:24;;;;;;;5.23;4.73;;;;;;;13.95;100.00;96541.34;5051773;27;101876;-60
2022/08/24 03:07:52;;;;;;;5.33;4.90;;;;;;;14.15;100.00;96547.50;5050433;27;104041;-60
2022/08/24 03:10:20;;;;;;;4.80;4.40;;;;;;;14.19;100.00;96543.25;5051150;27;104284;-60
2022/08/24 03:12:47;;;;;;;5.17;4.70;;;;;;;14.08;100.00;96544.31;5051714;27;101944;-60
2022/08/24 03:15:16;;;;;;;5.03;4.63;;;;;;;14.04;100.00;96550.44;5051602;27;105550;-60
2022/08/24 03:17:44;;;;;;;4.73;4.43;;;;;;;13.93;100.00;96546.97;5050232;27;105799;-60
2022/08/24 03:20:14;;;;;;;4.80;4.50;;;;;;;13.74;100.00;96547.75;5051727;27;102054;-60
2022/08/24 03:22:45;;;;;;;5.73;5.13;;;;;;;13.51;100.00;96542.94;5050178;27;105346;-60
2022/08/24 03:25:17;;;;;;;4.70;4.40;;;;;;;13.47;100.00;96547.19;5042637;27;105683;-60
2022/08/24 03:27:45;;;;;;;5.23;4.70;;;;;;;13.30;100.00;96547.41;5031605;28;105187;-60
2022/08/24 03:30:16;;;;;;;4.70;4.30;;;;;;;13.60;100.00;96549.34;5063774;27;105836;-60
2022/08/24 03:32:46;;;;;;;4.97;4.60;;;;;;;13.60;100.00;96547.47;5044929;27;101922;-60
2022/08/24 03:35:14;;;;;;;5.13;4.73;;;;;;;13.85;100.00;96550.16;5039480;27;105167;-60
2022/08/24 03:37:43;;;;;;;5.30;4.80;;;;;;;13.58;100.00;96543.47;5033104;27;102533;-60
2022/08/24 03:40:12;;;;;;;6.00;5.40;;;;;;;13.56;100.00;96542.91;5031406;28;101894;-60
2022/08/24 03:42:41;;;;;;;6.13;5.17;;;;;;;13.50;100.00;96544.78;5039072;27;105002;-60
2022/08/24 03:45:11;;;;;;;5.30;4.80;;;;;;;13.63;100.00;96554.94;5030533;27;105080;-60
2022/08/24 03:47:38;;;;;;;5.17;4.77;;;;;;;13.51;100.00;96554.41;5044766;27;102003;-60
2022/08/24 03:50:07;;;;;;;4.90;4.60;;;;;;;13.53;100.00;96554.91;5051072;27;105200;-60
2022/08/24 03:52:35;;;;;;;5.07;4.67;;;;;;;13.88;100.00;96567.53;5050625;27;101813;-60
2022/08/24 03:55:06;;;;;;;5.67;5.17;;;;;;;13.56;100.00;96550.91;5052776;27;102245;-60
2022/08/24 03:57:33;;;;;;;5.23;4.83;;;;;;;13.83;100.00;96562.19;5039930;27;104749;-60
2022/08/24 04:00:01;;;;;;;5.17;4.77;;;;;;;13.73;100.00;96554.97;5030233;28;101966;-60
2022/08/24 04:02:31;;;;;;;5.83;5.23;;;;;;;13.53;100.00;96546.91;5041559;27;102109;-60
2022/08/24 04:04:58;;;;;;;5.43;4.93;;;;;;;13.20;100.00;96549.25;5050776;27;106174;-60
2022/08/24 04:07:25;;;;;;;5.30;4.80;;;;;;;13.33;100.00;96548.75;5042054;27;101962;-60
2022/08/24 04:09:52;;;;;;;5.43;4.73;;;;;;;13.36;100.00;96551.69;5033655;28;104898;-60
2022/08/24 04:12:21;;;;;;;5.80;5.40;;;;;;;13.22;100.00;96542.59;5030791;27;101933;-60
2022/08/24 04:14:51;;;;;;;5.10;4.70;;;;;;;13.35;100.00;96554.63;5030820;28;104756;-60
2022/08/24 04:17:19;;;;;;;5.30;4.90;;;;;;;13.17;100.00;96547.91;5037932;27;105378;-60
2022/08/24 04:19:57;;;;;;;4.90;4.50;;;;;;;13.04;100.00;96547.59;5051104;27;101770;-60
2022/08/24 04:22:28;;;;;;;5.20;4.80;;;;;;;13.24;100.00;96555.69;5037883;27;105027;-60
2022/08/24 04:24:56;;;;;;;5.13;4.73;;;;;;;13.48;100.00;96556.78;5031384;27;102288;-60
2022/08/24 04:27:24;;;;;;;5.90;5.30;;;;;;;13.34;100.00;96550.34;5045311;27;101964;-60
2022/08/24 04:29:52;;;;;;;5.70;5.20;;;;;;;13.29;100.00;96553.81;5030641;28;104761;-60
2022/08/24 04:32:20;;;;;;;5.83;5.33;;;;;;;13.47;100.00;96557.88;5044812;27;101936;-60
2022/08/24 04:34:47;;;;;;;6.23;5.80;;;;;;;13.42;100.00;96558.63;5030767;27;105108;-60
2022/08/24 04:37:16;;;;;;;6.17;5.60;;;;;;;13.69;100.00;96553.09;5030818;27;105116;-60
2022/08/24 04:39:44;;;;;;;6.47;5.97;;;;;;;13.75;100.00;96562.72;5030166;28;101893;-60
2022/08/24 04:42:27;;;;;;;6.10;5.60;;;;;;;13.64;100.00;96561.09;5030289;27;105628;-60
2022/08/24 04:44:54;;;;;;;5.57;5.17;;;;;;;13.85;100.00;96562.75;5030953;28;102696;-60
2022/08/24 04:47:24;;;;;;;5.50;5.10;;;;;;;13.96;100.00;96564.34;5031275;27;101921;-60
2022/08/24 04:49:51;;;;;;;5.73;5.23;;;;;;;13.86;100.00;96567.81;5030456;28;104905;-60
2022/08/24 04:52:18;;;;;;;6.10;5.60;;;;;;;13.60;100.00;96565.38;5034027;27;105072;-60
2022/08/24 04:54:46;;;;;;;6.13;5.47;;;;;;;13.95;100.00;96581.47;5030221;27;105368;-60
2022/08/24 04:57:21;;;;;;;6.10;5.60;;;;;;;14.09;100.00;96583.34;5049340;27;105053;-60
2022/08/24 04:59:50;;;;;;;6.03;5.53;;;;;;;14.28;100.00;96576.41;5049298;27;105310;-60
2022/08/24 05:02:17;;;;;;;6.27;5.77;;;;;;;14.36;100.00;96583.91;5049335;27;105819;-60
2022/08/24 05:04:49;;;;;;;6.03;5.57;;;;;;;14.51;100.00;96585.75;5049615;27;105344;-60
2022/08/24 05:07:18;;;;;;;6.10;5.60;;;;;;;14.40;100.00;96582.25;5030719;27;101978;-60
2022/08/24 05:09:46;;;;;;;6.00;5.50;;;;;;;14.46;100.00;96583.91;5029568;27;104879;-60
2022/08/24 05:12:12;;;;;;;6.33;5.77;;;;;;;14.55;100.00;96584.16;5045893;27;104110;-60
2022/08/24 05:14:50;;;;;;;6.00;5.50;;;;;;;14.89;100.00;96587.81;5033272;27;101923;-60
2022/08/24 05:17:17;;;;;;;5.83;5.33;;;;;;;14.97;100.00;96582.69;5028877;28;105083;-60
2022/08/24 05:19:44;;;;;;;6.23;5.73;;;;;;;15.07;100.00;96589.88;5029707;28;101823;-60
2022/08/24 05:22:12;;;;;;;5.90;5.40;;;;;;;15.24;100.00;96587.69;5031225;27;104113;-60
2022/08/24 05:24:44;;;;;;;5.80;5.30;;;;;;;15.09;100.00;96595.78;5029626;28;105703;-60
2022/08/24 05:27:40;;;;;;;5.40;4.93;;;;;;;15.29;100.00;96601.88;5029757;28;101925;-60
2022/08/24 05:30:12;;;;;;;5.70;5.20;;;;;;;15.41;100.00;96597.00;5030006;28;105165;-60
2022/08/24 05:32:39;;;;;;;5.57;5.07;;;;;;;15.46;100.00;96596.19;5029360;28;105523;-60
2022/08/24 05:35:07;;;;;;;5.60;5.13;;;;;;;15.55;100.00;96606.06;5029786;28;101985;-60
2022/08/24 05:37:35;;;;;;;5.40;5.00;;;;;;;15.58;100.00;96602.03;5032622;28;104942;-60
2022/08/24 05:40:15;;;;;;;5.27;4.77;;;;;;;15.90;100.00;96605.03;5029721;28;101927;-60
2022/08/24 05:42:44;;;;;;;5.47;4.90;;;;;;;16.12;100.00;96602.75;5029670;28;104890;-59
2022/08/24 05:45:13;;;;;;;5.80;5.17;;;;;;;16.46;100.00;96598.22;5028858;28;105480;-59
2022/08/24 05:47:40;;;;;;;6.50;5.57;;;;;;;17.02;100.00;96593.88;5029739;28;102013;-60
2022/08/24 05:53:55;;;;;;;5.80;5.27;;;;;;;17.20;100.00;96599.31;5028903;28;105407;-60
2022/08/24 05:56:36;;;;;;;5.50;5.00;;;;;;;17.42;100.00;96599.63;5029106;28;102052;-60
2022/08/24 05:59:03;;;;;;;5.67;5.03;;;;;;;17.72;100.00;96603.81;5029137;28;105893;-60
2022/08/24 06:01:32;;;;;;;4.60;4.27;;;;;;;17.80;100.00;96608.53;5032352;28;105580;-60
2022/08/24 06:04:00;;;;;;;5.77;5.00;;;;;;;17.48;100.00;96605.72;5029488;28;105201;-60
2022/08/24 06:06:30;;;;;;;5.40;5.00;;;;;;;17.41;100.00;96607.97;5028731;28;105138;-60
2022/08/24 06:09:00;;;;;;;5.20;4.70;;;;;;;17.58;100.00;96610.97;5014764;28;101777;-59
2022/08/24 06:11:33;;;;;;;6.53;5.13;;;;;;;17.37;100.00;96599.66;5031907;28;105233;-59
2022/08/24 06:14:05;;;;;;;5.90;5.30;;;;;;;17.23;100.00;96609.47;5031378;28;105360;-59
2022/08/24 06:16:51;;;;;;;5.90;5.00;;;;;;;17.29;100.00;96607.56;5029797;28;101811;-59
2022/08/24 06:19:33;;;;;;;5.70;5.30;;;;;;;17.21;100.00;96610.84;5030984;28;105615;-60
2022/08/24 06:22:00;;;;;;;6.37;5.80;;;;;;;17.34;100.00;96612.88;5028331;28;105023;-58
2022/08/24 06:27:21;;;;;;;6.23;5.73;;;;;;;17.27;100.00;96612.44;5028510;28;104375;-59
2022/08/24 06:29:51;;;;;;;7.90;7.20;;;;;;;17.33;100.00;96611.28;5029058;27;101872;-59
2022/08/24 06:32:42;;;;;;;7.00;6.33;;;;;;;17.75;100.00;96604.03;5027971;28;101995;-60
2022/08/24 06:35:11;;;;;;;6.93;6.40;;;;;;;18.19;100.00;96612.53;5045777;27;105761;-60
2022/08/24 06:37:38;;;;;;;6.97;6.37;;;;;;;18.15;100.00;96611.50;5029200;27;102023;-60
2022/08/24 06:40:09;;;;;;;7.73;6.47;;;;;;;17.95;100.00;96622.59;5028761;28;104207;-60
2022/08/24 06:42:37;;;;;;;6.50;5.90;;;;;;;17.98;100.00;96619.28;5028478;28;105220;-59
2022/08/24 06:45:47;;;;;;;6.70;6.10;;;;;;;18.13;100.00;96610.19;5032363;28;102437;-60
2022/08/24 06:48:18;;;;;;;7.60;7.00;;;;;;;17.98;100.00;96618.50;5031225;27;105494;-59
2022/08/24 06:50:47;;;;;;;6.97;6.30;;;;;;;18.39;100.00;96616.81;5044779;27;103238;-60
2022/08/24 06:53:14;;;;;;;7.33;6.67;;;;;;;18.49;100.00;96614.78;5028990;28;104158;-60
2022/08/24 06:55:53;;;;;;;6.77;5.93;;;;;;;18.55;100.00;96615.47;5031922;27;104598;-58
2022/08/24 06:58:22;;;;;;;6.57;5.97;;;;;;;18.51;100.00;96606.38;5048927;27;102022;-72
2022/08/24 07:00:50;;;;;;;9.33;5.97;;;;;;;18.72;100.00;96608.44;5043932;27;104831;-62
2022/08/24 07:03:21;;;;;;;6.50;5.90;;;;;;;18.74;100.00;96610.84;5028074;28;103781;-63
2022/08/24 07:06:14;;;;;;;6.40;5.77;;;;;;;18.95;100.00;96612.06;5036030;27;101906;-63
2022/08/24 07:08:43;;;;;;;6.83;5.93;;;;;;;19.30;100.00;96614.13;5051166;27;103772;-63
2022/08/24 07:11:13;;;;;;;5.70;5.30;;;;;;;19.37;100.00;96614.53;5048978;27;101953;-64
2022/08/24 07:13:41;;;;;;;6.13;5.57;;;;;;;19.13;100.00;96616.59;5048885;27;104669;-64
2022/08/24 07:16:43;;;;;;;5.67;5.17;;;;;;;19.26;100.00;96624.72;5048201;27;105450;-64
2022/08/24 07:22:54;;;;;;;6.80;5.73;;;;;;;19.41;100.00;96629.03;5028550;28;105185;-63
2022/08/24 07:25:30;;;;;;;6.23;5.67;;;;;;;19.29;100.00;96624.13;5030829;27;105060;-63
2022/08/24 07:27:58;;;;;;;6.10;5.50;;;;;;;19.19;100.00;96623.50;5048723;27;101919;-63
2022/08/24 07:30:26;;;;;;;6.43;5.67;;;;;;;19.47;100.00;96625.13;5050158;27;102814;-63
2022/08/24 07:32:53;;;;;;;5.93;5.17;;;;;;;19.32;100.00;96622.72;5053099;27;105556;-63
2022/08/24 07:35:24;;;;;;;5.23;4.67;;;;;;;19.67;100.00;96613.94;5051952;27;105276;-63
2022/08/24 07:37:51;;;;;;;5.40;5.00;;;;;;;19.52;100.00;96619.63;5051201;27;105159;-64
2022/08/24 07:40:21;;;;;;;4.37;4.07;;;;;;;20.13;100.00;96618.06;5049522;27;101978;-62
2022/08/24 07:42:48;;;;;;;4.13;3.80;;;;;;;20.41;100.00;96613.34;5031875;28;104986;-62
2022/08/24 07:49:17;;;;;;;4.53;4.23;;;;;;;20.59;100.00;96609.66;5031635;28;101842;-63
2022/08/24 07:51:45;;;;;;;5.07;3.90;;;;;;;20.72;100.00;96614.19;5031501;28;105237;-63
2022/08/24 07:54:12;;;;;;;5.70;4.30;;;;;;;20.86;100.00;96610.28;5030620;28;106015;-63
2022/08/24 07:56:46;;;;;;;4.17;3.80;;;;;;;20.96;100.00;96610.06;5054329;27;102006;-65
2022/08/24 07:59:14;;;;;;;4.40;4.00;;;;;;;21.24;100.00;96606.06;5050538;27;105933;-63
2022/08/24 08:01:41;;;;;;;4.87;4.10;;;;;;;21.08;100.00;96609.50;5051574;27;101911;-64
2022/08/24 08:04:10;;;;;;;4.43;3.60;;;;;;;21.07;100.00;96608.69;5048304;27;104937;-62
2022/08/24 08:06:51;;;;;;;4.10;3.70;;;;;;;20.76;100.00;96609.78;5030688;28;105191;-62
2022/08/24 08:09:19;;;;;;;4.07;3.67;;;;;;;20.79;100.00;96606.44;5035466;27;101877;-63
2022/08/24 08:11:47;;;;;;;5.37;3.70;;;;;;;21.05;100.00;96597.41;5051569;27;105156;-63
2022/08/24 08:14:15;;;;;;;4.13;3.80;;;;;;;21.24;100.00;96597.13;5050699;27;105672;-62
2022/08/24 08:16:50;;;;;;;4.20;3.37;;;;;;;21.73;100.00;96594.94;5051330;27;101905;-62
2022/08/24 08:19:59;;;;;;;3.63;3.33;;;;;;;21.96;100.00;96599.09;5054363;27;105605;-61
2022/08/24 08:25:48;;;;;;;8.37;2.90;;;;;;;22.31;100.00;96602.63;5022470;28;102696;-63
2022/08/24 08:28:22;;;;;;;3.63;3.13;;;;;;;22.34;100.00;96604.72;5030580;28;105504;-61
2022/08/24 08:30:51;;;;;;;2.83;2.63;;;;;;;22.55;100.00;96600.28;5030873;28;101988;-62
2022/08/24 08:33:18;;;;;;;3.07;2.77;;;;;;;22.76;100.00;96606.59;5030936;28;105004;-61
2022/08/24 08:35:56;;;;;;;2.90;2.60;;;;;;;23.01;100.00;96594.91;5046387;27;105483;-62
2022/08/24 08:38:25;;;;;;;2.67;2.47;;;;;;;23.03;100.00;96596.16;5051170;27;101829;-63
2022/08/24 08:41:06;;;;;;;3.40;2.23;;;;;;;23.14;100.00;96596.59;5051353;27;104536;-63
2022/08/24 08:43:43;;;;;;;3.23;2.60;;;;;;;23.11;100.00;96589.13;5053242;27;105058;-62
2022/08/24 08:47:00;;;;;;;2.40;2.20;;;;;;;23.39;100.00;96596.53;5050395;27;105058;-62
2022/08/24 08:50:06;;;;;;;2.50;2.30;;;;;;;23.48;100.00;96596.50;5029700;28;105758;-62
2022/08/24 08:53:18;;;;;;;2.57;2.37;;;;;;;23.85;100.00;96598.34;5030581;28;101828;-63
2022/08/24 08:55:58;;;;;;;4.10;2.30;;;;;;;23.79;100.00;96599.66;5016463;28;105051;-63
2022/08/24 08:58:45;;;;;;;2.33;2.17;;;;;;;23.93;100.00;96592.09;5029646;28;105089;-63
2022/08/24 09:01:21;;;;;;;2.50;2.30;;;;;;;23.83;100.00;96593.25;5044215;27;102164;-63
2022/08/24 09:04:10;;;;;;;2.50;2.30;;;;;;;23.98;100.00;96591.91;5030636;28;104163;-63
2022/08/24 09:07:20;;;;;;;2.10;2.00;;;;;;;23.77;100.00;96591.06;5033438;28;105597;-63
2022/08/24 09:10:18;;;;;;;2.27;2.10;;;;;;;24.17;100.00;96595.75;5030413;28;103823;-63
2022/08/24 09:13:03;;;;;;;2.50;2.30;;;;;;;24.53;100.00;96587.75;5029577;28;103646;-63
2022/08/24 09:15:59;;;;;;;2.53;2.07;;;;;;;24.70;100.00;96592.28;5042857;27;101765;-63
2022/08/24 09:18:54;;;;;;;2.30;2.10;;;;;;;24.93;100.00;96591.56;5049991;27;105465;-63
2022/08/24 09:21:59;;;;;;;3.53;2.30;;;;;;;25.02;97.31;96589.53;5031165;27;105848;-63
2022/08/24 09:25:00;;;;;;;2.43;2.10;;;;;;;24.86;100.00;96585.09;4999028;28;102247;-63
2022/08/24 09:27:53;;;;;;;2.00;1.90;;;;;;;25.17;100.00;96583.44;5030003;28;104888;-62
2022/08/24 09:30:24;;;;;;;2.30;2.10;;;;;;;24.48;95.92;96582.56;5044128;27;104033;-62
2022/08/24 09:32:59;;;;;;;2.43;2.00;;;;;;;25.06;100.00;96584.22;5051655;27;101883;-62
2022/08/24 09:36:04;;;;;;;3.13;2.00;;;;;;;25.49;93.21;96579.88;5030689;28;101964;-64
2022/08/24 09:38:50;;;;;;;2.27;2.00;;;;;;;25.64;95.69;96581.91;5031286;28;101730;-63
2022/08/24 09:41:42;;;;;;;1.90;1.80;;;;;;;25.63;91.33;96576.81;5031276;28;102318;-63
2022/08/24 09:44:31;;;;;;;2.10;1.90;;;;;;;25.74;88.58;96572.47;5030525;28;102733;-63
2022/08/24 09:47:28;;;;;;;2.03;1.80;;;;;;;25.98;87.40;96572.47;5031312;28;101728;-63
2022/08/24 09:50:32;;;;;;;2.87;1.97;;;;;;;25.99;86.25;96568.63;5048429;27;103804;-63
2022/08/24 09:53:50;;;;;;;2.80;1.97;;;;;;;26.27;86.10;96566.72;5049259;27;107002;-63
2022/08/24 09:56:55;;;;;;;1.60;1.50;;;;;;;26.66;79.56;96555.81;5045510;27;102079;-63
2022/08/24 09:59:51;;;;;;;2.00;1.80;;;;;;;26.63;75.97;96564.69;5043969;27;105761;-64
2022/08/24 10:02:38;;;;;;;2.10;1.50;;;;;;;26.62;78.70;96562.28;5037050;27;102064;-63
2022/08/24 10:05:13;;;;;;;1.90;1.80;;;;;;;27.06;78.26;96564.66;5029356;28;105161;-63
2022/08/24 10:07:54;;;;;;;2.10;1.90;;;;;;;26.68;78.97;96564.44;5035541;27;105425;-63
2022/08/24 10:10:32;;;;;;;2.13;2.00;;;;;;;26.90;86.60;96560.31;5030898;28;101817;-63
2022/08/24 10:13:21;;;;;;;2.80;1.80;;;;;;;26.82;73.26;96553.09;5031068;28;102354;-63
2022/08/24 10:15:58;;;;;;;3.70;2.00;;;;;;;27.11;71.64;96548.03;5028843;28;106760;-63
2022/08/24 10:18:42;;;;;;;2.70;1.80;;;;;;;27.14;80.34;96550.03;5030668;28;101665;-63
2022/08/24 10:21:21;;;;;;;2.03;1.80;;;;;;;27.05;73.00;96545.91;5029163;28;105456;-63
2022/08/24 10:24:07;;;;;;;1.97;1.87;;;;;;;27.09;65.03;96536.66;5033573;28;103088;-63
2022/08/24 10:27:13;;;;;;;1.80;1.70;;;;;;;26.98;68.80;96543.78;5034861;27;105035;-63
2022/08/24 10:29:59;;;;;;;2.70;1.90;;;;;;;26.79;76.25;96548.31;5049928;27;103053;-63
2022/08/24 10:32:43;;;;;;;2.37;2.17;;;;;;;26.78;61.39;96541.28;5049216;27;101876;-63
2022/08/24 10:43:32;;;;;;;1.97;1.80;;;;;;;26.64;81.03;96535.47;5050284;27;101899;-63
2022/08/24 10:45:17;;;;;;;1.87;1.77;;;;;;;25.38;67.58;96537.09;5050009;27;102731;-63
2022/08/24 10:48:04;;;;;;;2.40;1.90;;;;;;;25.60;79.16;96534.69;5039066;27;103988;-63
2022/08/24 10:50:53;;;;;;;2.63;2.00;;;;;;;25.81;83.27;96534.53;5032389;28;101962;-63
2022/08/24 10:53:24;;;;;;;1.77;1.60;;;;;;;27.07;76.16;96527.22;5045789;27;105826;-63
2022/08/24 10:56:12;;;;;;;2.80;2.00;;;;;;;25.65;71.80;96525.50;5050278;27;101734;-63
2022/08/24 10:58:51;;;;;;;2.00;1.90;;;;;;;26.28;67.37;96536.41;5050637;27;102360;-62
2022/08/24 11:01:23;;;;;;;5.20;1.90;;;;;;;26.53;69.05;96532.41;5009333;28;102961;-63
2022/08/24 11:03:54;;;;;;;3.80;2.10;;;;;;;26.37;62.79;96530.78;5009906;28;101775;-63
2022/08/24 11:07:04;;;;;;;4.57;1.93;;;;;;;25.90;67.63;96525.13;5025382;28;105324;-63
2022/08/24 11:09:45;;;;;;;2.40;1.70;;;;;;;26.91;71.68;96532.69;5006122;28;103208;-63
2022/08/24 11:12:22;;;;;;;1.80;1.70;;;;;;;27.64;66.99;96532.94;4993658;28;101818;-62
2022/08/24 11:14:51;;;;;;;1.73;1.63;;;;;;;28.15;62.90;96539.97;4994734;28;105245;-62
2022/08/24 11:17:21;;;;;;;2.03;1.70;;;;;;;28.55;56.02;96532.25;4992056;28;101958;-63
2022/08/24 11:19:53;;;;;;;1.80;1.70;;;;;;;28.56;59.49;96531.06;4993319;28;102882;-63
2022/08/24 11:22:40;;;;;;;4.17;2.07;;;;;;;27.63;50.63;96528.63;4992697;28;103180;-62
2022/08/24 11:25:15;;;;;;;2.33;1.90;;;;;;;26.15;55.89;96525.88;5012022;28;102771;-63
2022/08/24 11:27:46;;;;;;;2.63;1.90;;;;;;;26.63;55.12;96522.94;5011866;28;105363;-63
2022/08/24 11:30:24;;;;;;;1.80;1.70;;;;;;;27.70;53.11;96528.78;5012455;28;102730;-62
2022/08/24 11:32:55;;;;;;;1.67;1.50;;;;;;;26.63;54.13;96517.50;5011654;28;101868;-62
2022/08/24 11:35:35;;;;;;;3.23;1.70;;;;;;;26.97;51.21;96508.66;5014576;28;105892;-63
2022/08/24 11:38:14;;;;;;;3.33;1.80;;;;;;;27.97;59.34;96517.72;5011259;28;101942;-63
2022/08/24 11:40:44;;;;;;;2.33;1.70;;;;;;;28.47;50.24;96516.81;5009110;28;102339;-63
2022/08/24 11:43:22;;;;;;;1.80;1.70;;;;;;;28.88;46.91;96518.78;5011239;28;105861;-62
2022/08/24 11:46:15;;;;;;;2.40;1.83;;;;;;;27.11;49.07;96517.19;5013080;28;101712;-62
2022/08/24 11:48:54;;;;;;;1.80;1.67;;;;;;;27.28;52.64;96511.41;5012849;28;102338;-62
2022/08/24 11:51:35;;;;;;;2.40;1.70;;;;;;;28.10;55.05;96519.16;5012016;28;102725;-62
2022/08/24 11:54:12;;;;;;;1.80;1.60;;;;;;;28.98;49.75;96518.22;5012815;28;101831;-62
2022/08/24 11:57:06;;;;;;;2.50;1.70;;;;;;;29.39;49.39;96511.84;5007919;28;105286;-62
2022/08/24 11:59:44;;;;;;;2.25;1.60;;;;;;;29.19;41.51;96510.34;5006765;28;105885;-63
2022/08/24 12:02:23;;;;;;;1.60;1.50;;;;;;;28.61;44.00;96511.63;5032808;28;102373;-62
2022/08/24 12:04:55;;;;;;;2.33;1.52;;;;;;;29.32;50.83;96507.03;5030718;28;104518;-63
2022/08/24 12:07:43;;;;;;;1.85;1.60;;;;;;;29.93;46.98;96499.38;5031172;28;102285;-63
2022/08/24 12:10:26;;;;;;;3.33;1.60;;;;;;;30.40;44.86;96509.81;5031221;28;105573;-63
2022/08/24 12:13:02;;;;;;;1.75;1.60;;;;;;;30.61;43.60;96504.53;5031924;28;103132;-62
2022/08/24 12:15:51;;;;;;;2.30;1.67;;;;;;;29.75;42.17;96497.56;5040429;27;101791;-63
2022/08/24 12:18:31;;;;;;;3.40;1.80;;;;;;;27.78;44.72;96503.22;5051819;27;102838;-62
2022/08/24 12:20:58;;;;;;;1.67;1.38;;;;;;;29.27;46.97;96498.34;5039766;27;102997;-62